Time;durP1;ratioP1;P1;durP2;ratioP2;P2;SDS_P1;SDS_P2;PMS_P1;PMS_P2;Temp;Humidity;BMP_temperature;BMP_pressure;BME280_temperature;BME280_humidity;BME280_pressure;Samples;Min_cycle;Max_cycle;Signal;HPM_P1;HPM_P2
2021/08/16 00:00:16;;;;;;;9.73;7.63;;;;;;;21.23;99.30;96300.41;5047715;28;20562;-63
2021/08/16 00:02:44;;;;;;;14.15;8.82;;;;;;;21.42;97.91;96290.28;5041217;28;20191;-63
2021/08/16 00:05:10;;;;;;;9.27;7.93;;;;;;;21.37;97.74;96277.88;5045301;28;20276;-63
2021/08/16 00:07:36;;;;;;;10.52;8.15;;;;;;;21.42;97.76;96282.28;5042417;28;20272;-63
2021/08/16 00:10:01;;;;;;;12.10;8.32;;;;;;;21.47;96.88;96279.47;5035248;28;20268;-63
2021/08/16 00:12:27;;;;;;;14.07;8.05;;;;;;;21.40;97.23;96290.56;5043736;28;20638;-63
2021/08/16 00:14:52;;;;;;;14.05;7.85;;;;;;;21.48;96.94;96289.84;5040935;28;20217;-63
2021/08/16 00:17:17;;;;;;;9.13;7.47;;;;;;;21.62;95.92;96271.06;5036593;28;20191;-63
2021/08/16 00:19:43;;;;;;;11.18;7.68;;;;;;;21.58;95.51;96275.44;5046794;28;20762;-63
2021/08/16 00:22:08;;;;;;;10.43;7.57;;;;;;;21.78;93.11;96274.88;5039956;28;20202;-63
2021/08/16 00:24:34;;;;;;;7.22;6.53;;;;;;;21.65;93.30;96272.31;5034778;28;20271;-63
2021/08/16 00:27:00;;;;;;;8.32;7.00;;;;;;;21.77;91.27;96269.84;5041616;28;20264;-63
2021/08/16 00:29:25;;;;;;;10.40;6.20;;;;;;;21.92;89.23;96264.06;5042280;28;20182;-63
2021/08/16 00:31:51;;;;;;;8.63;6.32;;;;;;;21.93;88.62;96269.09;5034152;28;20646;-63
2021/08/16 00:34:16;;;;;;;8.23;6.15;;;;;;;22.00;88.10;96265.22;5020872;28;20190;-63
2021/08/16 00:36:42;;;;;;;8.80;6.30;;;;;;;22.16;87.42;96248.44;5039361;28;20280;-64
2021/08/16 00:39:07;;;;;;;9.68;6.25;;;;;;;22.04;87.82;96252.81;5047942;28;20265;-63
2021/08/16 00:41:33;;;;;;;15.90;6.38;;;;;;;21.99;87.61;96243.06;5033963;28;20300;-63
2021/08/16 00:44:00;;;;;;;8.13;6.60;;;;;;;22.03;87.12;96245.91;5039431;28;20772;-63
2021/08/16 00:46:26;;;;;;;6.60;5.82;;;;;;;22.01;86.84;96253.44;5047821;28;20654;-62
2021/08/16 00:48:51;;;;;;;7.20;6.25;;;;;;;21.94;87.01;96243.19;5038015;28;20186;-63
2021/08/16 00:51:17;;;;;;;7.20;6.50;;;;;;;22.00;85.97;96238.53;5032667;28;20600;-63
2021/08/16 00:53:44;;;;;;;7.32;6.63;;;;;;;22.18;84.07;96245.47;5046669;28;20185;-63
2021/08/16 00:56:09;;;;;;;10.15;6.63;;;;;;;22.27;83.30;96246.25;5036162;28;20289;-62
2021/08/16 00:58:35;;;;;;;8.00;6.40;;;;;;;22.31;83.18;96253.31;5024375;28;20609;-62
2021/08/16 01:01:02;;;;;;;8.20;6.68;;;;;;;22.34;82.22;96265.25;5041649;28;20201;-63
2021/08/16 01:03:32;;;;;;;8.35;6.30;;;;;;;22.54;81.54;96263.81;5033779;28;20229;-63
2021/08/16 01:05:58;;;;;;;8.98;7.07;;;;;;;22.55;81.51;96263.50;5018007;28;20285;-63
2021/08/16 01:08:25;;;;;;;6.88;6.13;;;;;;;22.53;82.15;96262.25;5043374;28;20190;-63
2021/08/16 01:10:52;;;;;;;11.32;7.22;;;;;;;22.60;82.96;96260.69;5041139;28;20202;-63
2021/08/16 01:13:18;;;;;;;7.88;6.40;;;;;;;22.55;83.67;96260.06;5043107;28;20659;-63
2021/08/16 01:15:59;;;;;;;11.13;6.85;;;;;;;22.53;84.92;96265.69;5031934;28;20196;-63
2021/08/16 01:18:25;;;;;;;9.38;7.32;;;;;;;22.13;88.34;96262.38;5041791;28;20186;-62
2021/08/16 01:20:52;;;;;;;7.30;6.45;;;;;;;21.95;89.42;96269.63;5048584;28;20561;-63
2021/08/16 01:23:18;;;;;;;8.52;6.80;;;;;;;21.79;90.61;96260.41;5044766;28;20214;-62
2021/08/16 01:25:48;;;;;;;7.53;6.40;;;;;;;21.83;90.37;96263.28;5034576;28;20217;-64
2021/08/16 01:28:20;;;;;;;9.30;6.70;;;;;;;21.86;89.63;96263.44;5023243;28;20659;-63
2021/08/16 01:30:51;;;;;;;10.43;6.60;;;;;;;21.99;88.46;96259.09;5039995;28;20660;-63
2021/08/16 01:33:17;;;;;;;9.73;6.65;;;;;;;21.95;89.09;96272.28;5042229;28;20179;-62
2021/08/16 01:35:42;;;;;;;8.07;6.65;;;;;;;21.63;91.25;96266.50;5033469;28;20190;-64
2021/08/16 01:38:08;;;;;;;8.35;6.47;;;;;;;21.76;90.54;96266.38;5041697;28;20196;-62
2021/08/16 01:40:33;;;;;;;11.55;6.97;;;;;;;21.77;90.25;96256.50;5041697;28;20702;-63
2021/08/16 01:42:59;;;;;;;7.65;6.72;;;;;;;21.63;91.27;96253.94;5034672;28;20197;-64
2021/08/16 01:45:24;;;;;;;9.15;6.28;;;;;;;21.64;91.01;96252.06;5034978;28;20186;-63
2021/08/16 01:47:49;;;;;;;8.18;6.53;;;;;;;21.56;91.31;96245.63;5040211;28;20187;-63
2021/08/16 01:50:16;;;;;;;8.85;6.95;;;;;;;21.38;92.73;96242.13;5044579;28;20316;-63
2021/08/16 01:52:42;;;;;;;10.07;7.75;;;;;;;21.50;91.74;96245.00;5038241;28;20185;-65
2021/08/16 01:55:08;;;;;;;9.32;6.93;;;;;;;21.49;91.91;96247.97;5042046;28;20183;-62
2021/08/16 01:57:34;;;;;;;11.07;7.30;;;;;;;21.37;93.27;96251.22;5049824;28;20186;-64
2021/08/16 02:00:00;;;;;;;13.48;7.70;;;;;;;21.54;91.76;96263.81;5040655;28;20256;-63
2021/08/16 02:02:25;;;;;;;8.50;7.22;;;;;;;21.51;92.15;96262.53;5041500;28;20660;-63
2021/08/16 02:04:51;;;;;;;11.63;7.55;;;;;;;21.44;92.78;96264.88;5039810;28;20266;-63
2021/08/16 02:07:16;;;;;;;8.82;6.80;;;;;;;21.53;92.26;96260.38;5040129;28;20586;-62
2021/08/16 02:09:41;;;;;;;8.80;7.43;;;;;;;21.55;92.09;96254.72;5037550;28;20187;-64
2021/08/16 02:12:08;;;;;;;8.18;6.82;;;;;;;21.62;91.79;96254.28;5041766;28;20729;-62
2021/08/16 02:14:33;;;;;;;9.02;7.10;;;;;;;21.62;91.43;96268.41;5034469;28;20313;-63
2021/08/16 02:16:59;;;;;;;7.97;6.68;;;;;;;21.56;91.73;96267.75;5044510;28;20655;-63
2021/08/16 02:19:24;;;;;;;8.55;6.53;;;;;;;21.69;91.27;96270.59;5044553;28;20190;-63
2021/08/16 02:21:50;;;;;;;8.57;7.53;;;;;;;21.75;90.56;96286.16;5035577;28;20202;-62
2021/08/16 02:24:15;;;;;;;9.27;6.88;;;;;;;21.76;90.91;96284.28;5040320;28;20259;-63
2021/08/16 02:26:41;;;;;;;11.88;7.95;;;;;;;21.71;90.97;96295.88;5038010;28;20554;-64
2021/08/16 02:29:09;;;;;;;12.77;8.32;;;;;;;21.44;92.70;96296.88;5036783;28;20640;-63
2021/08/16 02:31:34;;;;;;;12.38;7.55;;;;;;;21.07;94.84;96294.63;5048570;28;20272;-63
2021/08/16 02:34:00;;;;;;;9.60;7.80;;;;;;;21.18;93.85;96292.53;5047321;28;20275;-62
2021/08/16 02:36:25;;;;;;;13.50;7.28;;;;;;;21.28;92.56;96303.72;5040602;28;20639;-62
2021/08/16 02:38:50;;;;;;;9.27;7.18;;;;;;;21.16;92.16;96306.16;5034620;28;20274;-63
2021/08/16 02:41:16;;;;;;;9.77;7.40;;;;;;;21.10;92.10;96315.34;5047564;28;20230;-64
2021/08/16 02:43:41;;;;;;;11.45;7.38;;;;;;;21.01;92.82;96312.63;5039297;28;20632;-65
2021/08/16 02:46:07;;;;;;;9.40;6.75;;;;;;;21.12;92.31;96321.16;5037670;28;20204;-63
2021/08/16 02:48:32;;;;;;;7.50;6.47;;;;;;;21.07;92.42;96324.72;5044203;28;20186;-63
2021/08/16 02:50:57;;;;;;;10.48;7.10;;;;;;;21.21;91.37;96326.56;5042984;28;20450;-62
2021/08/16 02:53:23;;;;;;;9.90;7.47;;;;;;;21.16;91.46;96322.16;5044313;28;20193;-62
2021/08/16 02:55:48;;;;;;;8.35;6.70;;;;;;;20.98;91.65;96318.56;5041365;28;20273;-63
2021/08/16 02:58:13;;;;;;;7.05;6.35;;;;;;;20.92;91.39;96322.44;5032904;28;20206;-63
2021/08/16 03:00:39;;;;;;;7.85;6.22;;;;;;;20.99;90.92;96333.47;5033621;28;20282;-63
2021/08/16 03:03:04;;;;;;;7.40;6.15;;;;;;;20.93;90.54;96324.03;5047239;28;20559;-63
2021/08/16 03:05:29;;;;;;;8.18;6.03;;;;;;;20.81;91.04;96318.44;5040163;28;20277;-64
2021/08/16 03:07:55;;;;;;;11.32;6.13;;;;;;;20.72;91.19;96314.94;5043674;28;20182;-63
2021/08/16 03:10:20;;;;;;;8.55;5.47;;;;;;;20.68;91.10;96313.94;5037696;28;20194;-63
2021/08/16 03:12:46;;;;;;;7.28;5.25;;;;;;;20.83;90.07;96312.81;5041819;28;20214;-63
2021/08/16 03:15:12;;;;;;;9.30;5.63;;;;;;;20.69;90.93;96312.88;5047047;28;20182;-62
2021/08/16 03:17:38;;;;;;;5.85;5.25;;;;;;;20.74;90.02;96307.41;5039409;28;20187;-63
2021/08/16 03:20:05;;;;;;;7.07;5.88;;;;;;;20.77;89.59;96309.50;5039199;28;20190;-63
2021/08/16 03:22:31;;;;;;;7.03;5.80;;;;;;;20.74;89.70;96313.53;5037353;28;20712;-63
2021/08/16 03:24:56;;;;;;;8.50;5.43;;;;;;;20.86;88.72;96306.88;5047927;28;20269;-63
2021/08/16 03:27:21;;;;;;;8.63;4.95;;;;;;;20.89;88.21;96306.28;5039968;28;20555;-63
2021/08/16 03:29:47;;;;;;;5.30;4.80;;;;;;;20.79;88.88;96311.88;5039952;28;20195;-63
2021/08/16 03:32:12;;;;;;;8.10;5.30;;;;;;;20.77;88.68;96312.16;5040538;28;20273;-64
2021/08/16 03:34:38;;;;;;;7.22;5.82;;;;;;;20.71;89.31;96314.16;5048544;28;20400;-63
2021/08/16 03:37:03;;;;;;;9.98;5.40;;;;;;;20.53;90.44;96308.97;5033387;28;20187;-63
2021/08/16 03:39:29;;;;;;;7.93;5.82;;;;;;;20.63;90.13;96314.88;5040083;28;20631;-63
2021/08/16 03:41:54;;;;;;;6.55;5.35;;;;;;;20.66;90.14;96313.47;5035843;28;20208;-63
2021/08/16 03:44:20;;;;;;;6.53;5.80;;;;;;;20.71;89.90;96308.03;5051844;28;20265;-63
2021/08/16 03:46:45;;;;;;;9.98;5.55;;;;;;;20.61;91.07;96313.59;5034551;28;20607;-64
2021/08/16 03:49:11;;;;;;;7.07;6.05;;;;;;;20.53;91.82;96320.44;5042022;28;20182;-63
2021/08/16 03:51:37;;;;;;;7.60;5.80;;;;;;;20.56;92.02;96321.72;5049325;28;20562;-63
2021/08/16 03:54:02;;;;;;;8.15;5.70;;;;;;;20.69;91.46;96326.97;5044833;28;20175;-63
2021/08/16 03:56:28;;;;;;;9.88;6.00;;;;;;;20.84;90.65;96328.50;5045026;28;20178;-62
2021/08/16 03:58:53;;;;;;;8.88;5.93;;;;;;;20.81;90.90;96322.97;5033715;28;20271;-63
2021/08/16 04:01:19;;;;;;;7.32;5.78;;;;;;;20.48;93.27;96309.91;5039411;28;20615;-63
2021/08/16 04:03:44;;;;;;;10.20;6.78;;;;;;;20.56;93.09;96319.81;5047379;28;20257;-65
2021/08/16 04:06:10;;;;;;;8.23;5.75;;;;;;;20.44;94.27;96319.59;5036475;28;20197;-63
2021/08/16 04:08:39;;;;;;;7.85;5.85;;;;;;;20.42;94.28;96329.72;5042965;28;20595;-63
2021/08/16 04:11:08;;;;;;;8.02;5.90;;;;;;;20.37;95.33;96332.50;5043492;28;20225;-63
2021/08/16 04:13:33;;;;;;;7.93;6.65;;;;;;;20.43;95.45;96330.53;5034991;28;20197;-63
2021/08/16 04:15:59;;;;;;;8.82;6.65;;;;;;;20.63;94.68;96338.84;5034189;28;20190;-63
2021/08/16 04:18:24;;;;;;;9.07;6.90;;;;;;;20.54;94.72;96337.19;5050303;28;20194;-63
2021/08/16 04:20:50;;;;;;;8.77;6.68;;;;;;;20.39;95.98;96334.88;5049186;28;20210;-63
2021/08/16 04:23:15;;;;;;;13.93;7.45;;;;;;;20.60;94.81;96334.13;5048974;28;20186;-63
2021/08/16 04:25:41;;;;;;;8.57;6.75;;;;;;;20.57;95.49;96340.03;5041862;28;20186;-63
2021/08/16 04:28:07;;;;;;;11.80;7.07;;;;;;;20.46;96.06;96336.03;5045059;28;20221;-63
2021/08/16 04:30:32;;;;;;;10.20;7.30;;;;;;;20.39;96.58;96324.22;5043322;28;20279;-63
2021/08/16 04:32:57;;;;;;;9.65;6.78;;;;;;;20.35;96.24;96334.66;5032468;28;20652;-63
2021/08/16 04:35:23;;;;;;;9.27;7.20;;;;;;;20.16;96.31;96329.47;5034433;28;20197;-63
2021/08/16 04:37:48;;;;;;;6.95;6.35;;;;;;;20.26;94.43;96331.13;5046785;28;20602;-63
2021/08/16 04:40:14;;;;;;;9.38;6.70;;;;;;;20.21;93.33;96340.00;5039277;28;20229;-63
2021/08/16 04:42:40;;;;;;;9.60;6.35;;;;;;;20.34;91.48;96343.75;5040186;28;20635;-63
2021/08/16 04:45:07;;;;;;;8.02;5.60;;;;;;;20.47;90.60;96348.25;5039919;28;20271;-63
2021/08/16 04:47:33;;;;;;;8.57;6.32;;;;;;;20.50;89.90;96350.34;5034593;28;20552;-64
2021/08/16 04:49:58;;;;;;;9.27;6.20;;;;;;;20.38;90.53;96357.25;5047469;28;20198;-63
2021/08/16 04:52:25;;;;;;;6.80;5.82;;;;;;;20.38;90.15;96357.25;5043754;28;20182;-62
2021/08/16 04:54:50;;;;;;;9.18;6.07;;;;;;;20.31;90.13;96374.44;5041472;28;20217;-63
2021/08/16 04:57:29;;;;;;;6.32;5.30;;;;;;;20.55;89.17;96371.53;5036711;28;20655;-63
2021/08/16 04:59:54;;;;;;;6.78;5.18;;;;;;;20.47;88.32;96376.75;5046228;28;20175;-63
2021/08/16 05:02:20;;;;;;;6.15;5.40;;;;;;;20.61;87.75;96380.97;5039033;28;20728;-63
2021/08/16 05:04:46;;;;;;;10.15;5.60;;;;;;;20.88;84.82;96388.09;5040827;28;20194;-64
2021/08/16 05:07:12;;;;;;;6.60;5.60;;;;;;;20.74;84.70;96387.34;5040050;28;20186;-63
2021/08/16 05:09:37;;;;;;;7.03;5.38;;;;;;;20.45;86.45;96401.00;5040024;28;20267;-63
2021/08/16 05:12:03;;;;;;;7.78;5.15;;;;;;;20.23;87.62;96395.59;5041171;28;20218;-62
2021/08/16 05:14:28;;;;;;;6.30;5.20;;;;;;;20.40;86.57;96403.00;5042661;28;20209;-62
2021/08/16 05:16:54;;;;;;;6.00;4.82;;;;;;;20.50;85.51;96408.91;5037650;28;20191;-62
2021/08/16 05:19:19;;;;;;;6.75;4.75;;;;;;;20.60;84.68;96408.69;5040143;28;20174;-62
2021/08/16 05:21:45;;;;;;;5.90;5.10;;;;;;;20.70;83.57;96419.13;5033613;28;20252;-63
2021/08/16 05:24:10;;;;;;;6.15;5.00;;;;;;;20.78;83.00;96417.63;5039548;28;20194;-64
2021/08/16 05:26:35;;;;;;;8.63;5.20;;;;;;;20.67;83.17;96419.69;5040556;28;20226;-62
2021/08/16 05:29:01;;;;;;;6.47;4.88;;;;;;;20.85;82.37;96427.84;5042031;28;20247;-64
2021/08/16 05:31:26;;;;;;;7.32;4.82;;;;;;;20.75;81.93;96436.88;5044496;28;20235;-64
2021/08/16 05:33:52;;;;;;;5.68;4.18;;;;;;;20.92;80.82;96433.56;5045253;28;21779;-64
2021/08/16 05:36:17;;;;;;;5.57;4.43;;;;;;;20.81;80.46;96438.34;5039931;28;20183;-65
2021/08/16 05:38:43;;;;;;;7.20;4.65;;;;;;;21.04;79.52;96434.63;5036484;28;20190;-66
2021/08/16 05:41:08;;;;;;;6.35;4.03;;;;;;;20.96;79.00;96437.97;5047202;28;20340;-65
2021/08/16 05:43:34;;;;;;;4.25;3.85;;;;;;;21.05;77.77;96443.41;5046219;28;20537;-65
2021/08/16 05:45:59;;;;;;;5.57;4.13;;;;;;;21.08;77.77;96454.22;5045411;28;20246;-65
2021/08/16 05:48:24;;;;;;;6.28;5.40;;;;;;;20.79;79.07;96461.03;5043809;28;20650;-65
2021/08/16 05:50:50;;;;;;;5.03;4.47;;;;;;;20.88;78.91;96460.03;5039613;28;20213;-65
2021/08/16 05:53:15;;;;;;;5.05;4.35;;;;;;;20.51;79.52;96462.94;5051623;28;20182;-62
2021/08/16 05:55:41;;;;;;;5.20;4.25;;;;;;;20.65;78.14;96464.50;5044922;28;20191;-63
2021/08/16 05:58:06;;;;;;;7.45;4.30;;;;;;;20.61;77.83;96463.53;5044010;28;20221;-64
2021/08/16 06:00:32;;;;;;;4.18;3.78;;;;;;;20.76;77.94;96467.75;5048896;28;20543;-64
2021/08/16 06:02:57;;;;;;;6.03;3.95;;;;;;;20.95;77.20;96476.41;5049124;28;20273;-64
2021/08/16 06:05:22;;;;;;;6.70;4.25;;;;;;;20.94;77.54;96474.81;5051668;28;20182;-64
2021/08/16 06:07:48;;;;;;;6.32;4.70;;;;;;;20.56;77.95;96476.94;5034830;28;20532;-63
2021/08/16 06:10:13;;;;;;;8.95;3.92;;;;;;;20.87;77.29;96478.97;5044713;28;20578;-64
2021/08/16 06:12:39;;;;;;;5.15;4.18;;;;;;;20.51;78.26;96477.03;5047460;28;20201;-63
2021/08/16 06:15:05;;;;;;;4.72;3.47;;;;;;;20.50;78.29;96483.47;5046250;28;20182;-63
2021/08/16 06:17:31;;;;;;;4.72;4.25;;;;;;;20.60;77.94;96483.25;5052400;28;20265;-64
2021/08/16 06:19:56;;;;;;;4.60;3.58;;;;;;;20.84;77.29;96496.38;5048165;28;20720;-63
2021/08/16 06:22:21;;;;;;;4.30;3.83;;;;;;;21.15;75.17;96494.63;5039346;28;20309;-63
2021/08/16 06:24:47;;;;;;;8.80;4.20;;;;;;;21.50;75.04;96489.56;5043015;28;20193;-66
2021/08/16 06:27:12;;;;;;;4.93;3.55;;;;;;;21.79;73.79;96497.91;5043823;28;20188;-64
2021/08/16 06:29:37;;;;;;;5.93;4.15;;;;;;;22.09;71.94;96499.03;5036867;28;20190;-64
2021/08/16 06:32:03;;;;;;;7.57;4.28;;;;;;;22.16;70.33;96507.41;5043465;28;20372;-64
2021/08/16 06:34:29;;;;;;;5.95;4.10;;;;;;;22.29;69.70;96511.09;5049995;28;20250;-63
2021/08/16 06:36:55;;;;;;;5.03;4.53;;;;;;;22.06;69.61;96510.34;5051118;28;20185;-64
2021/08/16 06:39:22;;;;;;;5.90;4.38;;;;;;;21.98;71.41;96508.41;5049145;28;20217;-63
2021/08/16 06:41:50;;;;;;;5.00;4.53;;;;;;;22.32;69.22;96508.56;5035448;28;20682;-67
2021/08/16 06:44:17;;;;;;;5.30;4.70;;;;;;;22.30;67.49;96507.28;5025657;28;20255;-63
2021/08/16 06:46:43;;;;;;;4.03;3.60;;;;;;;21.95;69.07;96501.81;5044662;28;20186;-63
2021/08/16 06:49:09;;;;;;;5.65;4.07;;;;;;;21.83;69.86;96501.56;5039540;28;20229;-63
2021/08/16 06:51:34;;;;;;;4.28;3.95;;;;;;;21.62;70.11;96505.81;5041705;28;20218;-63
2021/08/16 06:54:00;;;;;;;5.35;4.32;;;;;;;22.02;69.68;96517.38;5048145;28;20217;-62
2021/08/16 06:56:25;;;;;;;5.95;4.28;;;;;;;21.87;70.09;96510.50;5039329;28;20572;-63
2021/08/16 06:58:50;;;;;;;7.00;4.25;;;;;;;22.00;70.18;96510.78;5040198;28;20185;-63
2021/08/16 07:01:25;;;;;;;4.80;4.28;;;;;;;22.08;69.28;96513.47;5041512;28;20214;-62
2021/08/16 07:03:51;;;;;;;5.10;4.22;;;;;;;21.98;69.17;96521.75;5044871;28;20188;-63
2021/08/16 07:06:16;;;;;;;5.75;4.32;;;;;;;22.09;69.28;96523.06;5037083;28;20186;-62
2021/08/16 07:08:42;;;;;;;5.45;4.32;;;;;;;21.81;69.36;96519.75;5047845;28;20189;-62
2021/08/16 07:11:08;;;;;;;7.30;4.10;;;;;;;21.76;69.50;96522.53;5036945;28;20182;-62
2021/08/16 07:13:33;;;;;;;4.75;4.28;;;;;;;22.05;68.69;96521.31;5041738;28;20181;-62
2021/08/16 07:15:58;;;;;;;6.30;4.22;;;;;;;22.07;67.88;96527.91;5039662;28;20190;-62
2021/08/16 07:18:24;;;;;;;5.32;3.83;;;;;;;22.13;67.80;96524.03;5037504;28;20186;-63
2021/08/16 07:20:49;;;;;;;4.53;4.13;;;;;;;22.23;67.12;96531.78;5041727;28;20214;-66
2021/08/16 07:23:15;;;;;;;5.22;3.95;;;;;;;22.15;67.01;96529.06;5038977;28;20542;-61
2021/08/16 07:25:40;;;;;;;4.15;3.60;;;;;;;22.11;67.86;96536.13;5039453;28;20261;-60
2021/08/16 07:28:06;;;;;;;4.25;3.40;;;;;;;22.34;66.61;96538.44;5038675;28;20181;-59
2021/08/16 07:30:32;;;;;;;3.55;3.22;;;;;;;22.36;66.03;96541.56;5043741;28;20240;-60
2021/08/16 07:32:57;;;;;;;4.40;3.50;;;;;;;22.56;64.83;96542.13;5046648;28;20199;-59
2021/08/16 07:35:23;;;;;;;6.22;4.45;;;;;;;22.56;65.75;96539.47;5040198;28;20191;-58
2021/08/16 07:37:48;;;;;;;3.47;3.13;;;;;;;22.37;64.36;96542.38;5036338;28;20533;-61
2021/08/16 07:40:14;;;;;;;3.95;3.50;;;;;;;22.38;64.32;96541.28;5037037;28;20229;-59
2021/08/16 07:42:40;;;;;;;3.78;3.47;;;;;;;22.16;64.83;96544.00;5046218;28;20187;-60
2021/08/16 07:45:07;;;;;;;3.55;3.10;;;;;;;22.38;64.00;96547.41;5020284;28;20248;-60
2021/08/16 07:47:32;;;;;;;4.20;3.17;;;;;;;22.90;62.15;96544.94;5044004;28;21737;-60
2021/08/16 07:49:59;;;;;;;4.38;3.20;;;;;;;23.08;61.91;96537.72;5044834;28;20177;-60
2021/08/16 07:52:24;;;;;;;3.38;3.08;;;;;;;23.40;60.75;96528.50;5043327;28;20222;-62
2021/08/16 07:54:54;;;;;;;3.03;2.67;;;;;;;23.50;59.67;96538.91;5043771;28;20186;-63
2021/08/16 07:57:19;;;;;;;3.58;2.72;;;;;;;23.13;59.29;96540.25;5038810;28;20189;-61
2021/08/16 07:59:45;;;;;;;3.10;2.40;;;;;;;22.48;59.95;96529.53;5037921;28;20553;-61
2021/08/16 08:02:10;;;;;;;3.30;2.65;;;;;;;21.85;61.06;96530.59;5042340;28;20286;-61
2021/08/16 08:04:35;;;;;;;4.13;2.60;;;;;;;21.95;61.24;96536.50;5041618;28;20178;-61
2021/08/16 08:07:01;;;;;;;3.55;3.05;;;;;;;22.14;61.12;96538.97;5039858;28;20190;-61
2021/08/16 08:09:27;;;;;;;5.40;2.78;;;;;;;22.48;60.05;96540.22;5038972;28;20291;-61
2021/08/16 08:11:52;;;;;;;4.55;2.78;;;;;;;22.57;59.54;96552.50;5043298;28;20182;-62
2021/08/16 08:14:18;;;;;;;4.40;2.65;;;;;;;22.43;58.96;96551.81;5034721;28;20520;-61
2021/08/16 08:16:43;;;;;;;16.60;2.88;;;;;;;22.64;58.87;96539.47;5046443;28;20193;-60
2021/08/16 08:19:09;;;;;;;3.35;2.58;;;;;;;22.93;58.46;96549.66;5034247;28;20262;-60
2021/08/16 08:21:34;;;;;;;3.05;2.70;;;;;;;23.07;57.70;96544.97;5046606;28;20247;-60
2021/08/16 08:23:59;;;;;;;3.78;2.75;;;;;;;23.60;57.22;96547.41;5038078;28;20186;-60
2021/08/16 08:26:25;;;;;;;2.55;2.30;;;;;;;24.22;55.68;96544.34;5039965;28;20214;-60
2021/08/16 08:28:50;;;;;;;4.15;2.63;;;;;;;24.01;55.66;96538.06;5042147;28;20277;-62
2021/08/16 08:31:16;;;;;;;3.67;2.63;;;;;;;23.06;57.56;96540.75;5044125;28;20650;-61
2021/08/16 08:33:41;;;;;;;2.60;2.40;;;;;;;22.91;57.29;96543.84;5040411;28;20186;-61
2021/08/16 08:36:07;;;;;;;3.65;2.72;;;;;;;23.17;57.18;96538.56;5036349;28;20239;-60
2021/08/16 08:38:32;;;;;;;2.78;2.55;;;;;;;23.01;56.49;96529.41;5039992;28;20183;-60
2021/08/16 08:41:00;;;;;;;4.95;3.05;;;;;;;22.43;56.98;96543.81;5036374;28;20237;-60
2021/08/16 08:43:26;;;;;;;3.08;2.67;;;;;;;22.61;58.11;96542.78;5048850;28;20189;-60
2021/08/16 08:45:54;;;;;;;6.47;3.05;;;;;;;22.44;56.54;96548.06;5037690;28;20186;-62
2021/08/16 08:48:19;;;;;;;5.82;2.70;;;;;;;23.00;56.53;96536.63;5040013;28;20187;-60
2021/08/16 08:50:46;;;;;;;4.10;2.85;;;;;;;24.07;53.76;96534.13;5044587;28;20193;-60
2021/08/16 08:53:12;;;;;;;4.90;2.63;;;;;;;23.94;53.34;96533.19;5038420;28;20194;-60
2021/08/16 08:55:37;;;;;;;5.82;3.10;;;;;;;23.66;53.35;96542.69;5038848;28;20182;-61
2021/08/16 08:58:02;;;;;;;5.95;2.65;;;;;;;23.61;53.87;96537.50;5037351;28;20539;-61
2021/08/16 09:00:28;;;;;;;3.95;2.72;;;;;;;23.89;53.12;96532.56;5036230;28;20189;-60
2021/08/16 09:03:01;;;;;;;3.45;2.70;;;;;;;23.95;52.57;96524.06;5040368;28;20182;-62
2021/08/16 09:05:27;;;;;;;5.00;2.50;;;;;;;24.22;51.87;96530.94;5034793;28;20628;-61
2021/08/16 09:07:58;;;;;;;3.88;2.80;;;;;;;24.89;50.96;96534.78;5034678;28;20609;-62
2021/08/16 09:10:25;;;;;;;4.43;3.22;;;;;;;24.89;49.42;96527.53;5041356;28;20232;-60
2021/08/16 09:12:56;;;;;;;5.10;2.72;;;;;;;24.16;51.73;96532.19;5044737;28;20206;-63
2021/08/16 09:15:23;;;;;;;3.13;2.60;;;;;;;23.76;53.03;96537.00;5042814;28;20185;-60
2021/08/16 09:17:53;;;;;;;4.82;2.78;;;;;;;23.56;53.51;96540.31;5045033;28;20186;-61
2021/08/16 09:20:30;;;;;;;5.70;3.03;;;;;;;23.77;53.67;96537.78;5035682;28;20194;-61
2021/08/16 09:23:15;;;;;;;4.65;3.13;;;;;;;23.78;54.32;96534.81;5067201;28;20179;-63
2021/08/16 09:25:56;;;;;;;3.88;2.97;;;;;;;24.04;53.73;96540.88;5036311;28;20253;-61
2021/08/16 09:28:30;;;;;;;3.72;2.70;;;;;;;23.63;53.41;96543.28;5043499;28;20581;-62
2021/08/16 09:31:08;;;;;;;5.00;3.35;;;;;;;23.66;54.02;96544.56;5042803;28;20325;-62
2021/08/16 09:33:33;;;;;;;5.82;3.50;;;;;;;23.32;53.72;96545.31;5026616;28;20261;-62
2021/08/16 09:35:59;;;;;;;4.55;3.05;;;;;;;23.63;52.81;96545.97;5039998;28;20261;-62
2021/08/16 09:38:34;;;;;;;4.00;2.88;;;;;;;23.93;52.72;96536.97;5038766;28;20655;-63
2021/08/16 09:41:00;;;;;;;4.93;3.17;;;;;;;23.00;54.20;96541.97;5039890;28;20320;-63
2021/08/16 09:43:29;;;;;;;3.38;2.92;;;;;;;23.52;53.62;96539.34;5045559;28;20658;-63
2021/08/16 09:45:55;;;;;;;3.63;2.78;;;;;;;23.49;53.35;96546.16;5036667;28;20194;-65
2021/08/16 09:48:22;;;;;;;6.05;3.47;;;;;;;23.54;53.10;96545.97;5047920;28;20182;-63
2021/08/16 09:50:51;;;;;;;5.00;2.70;;;;;;;22.84;53.85;96535.50;5052734;28;20268;-63
2021/08/16 09:53:22;;;;;;;4.70;3.10;;;;;;;23.18;53.70;96529.44;5034746;28;20191;-63
2021/08/16 09:55:49;;;;;;;3.78;2.70;;;;;;;23.29;52.51;96529.91;5049683;28;20186;-63
2021/08/16 09:58:16;;;;;;;5.15;2.92;;;;;;;23.68;52.26;96529.00;5038231;28;20602;-63
2021/08/16 10:00:44;;;;;;;6.88;3.50;;;;;;;23.87;52.66;96516.03;5042290;28;20220;-63
2021/08/16 10:03:11;;;;;;;4.35;2.95;;;;;;;24.51;51.06;96511.47;5041114;28;20186;-64
2021/08/16 10:05:40;;;;;;;7.10;3.10;;;;;;;23.98;52.33;96517.28;5034466;28;20266;-63
2021/08/16 10:08:10;;;;;;;6.65;3.28;;;;;;;24.05;51.85;96509.53;5038662;28;20189;-63
2021/08/16 10:10:38;;;;;;;5.15;3.20;;;;;;;24.33;51.23;96515.31;5046299;28;20194;-63
2021/08/16 10:13:05;;;;;;;4.20;2.70;;;;;;;23.60;53.48;96530.56;5046883;28;20189;-63
2021/08/16 10:15:36;;;;;;;3.08;2.78;;;;;;;23.65;52.90;96534.97;5048608;28;20194;-64
2021/08/16 10:18:03;;;;;;;3.80;2.70;;;;;;;23.79;51.80;96531.03;5036501;28;20189;-63
2021/08/16 10:20:29;;;;;;;4.00;2.60;;;;;;;23.70;51.95;96524.09;5037422;28;20189;-63
2021/08/16 10:22:55;;;;;;;3.80;2.45;;;;;;;24.14;50.52;96522.91;5036732;28;20187;-65
2021/08/16 10:25:21;;;;;;;2.72;2.28;;;;;;;24.67;49.50;96525.09;5035052;28;20195;-63
2021/08/16 10:27:47;;;;;;;4.90;2.45;;;;;;;24.55;49.76;96527.66;5048148;28;20543;-63
2021/08/16 10:30:14;;;;;;;2.90;2.40;;;;;;;23.65;51.60;96526.94;5039606;28;20347;-63
2021/08/16 10:32:40;;;;;;;3.40;2.95;;;;;;;23.91;51.80;96528.47;5042908;28;20193;-64
2021/08/16 10:35:13;;;;;;;3.92;2.40;;;;;;;24.53;50.36;96527.97;5036661;28;20191;-63
2021/08/16 10:37:41;;;;;;;7.65;2.90;;;;;;;24.49;50.77;96528.94;5033116;28;20860;-64
2021/08/16 10:40:26;;;;;;;3.13;2.28;;;;;;;24.43;50.90;96528.34;5041881;28;20341;-63
2021/08/16 10:42:55;;;;;;;3.55;2.50;;;;;;;24.58;50.05;96511.72;5042155;28;20181;-63
2021/08/16 10:45:29;;;;;;;3.50;2.40;;;;;;;24.67;49.83;96520.53;5037442;28;20191;-63
2021/08/16 10:48:05;;;;;;;5.90;2.47;;;;;;;24.80;49.42;96524.06;5019860;28;20193;-65
2021/08/16 10:50:31;;;;;;;3.47;2.22;;;;;;;24.57;48.55;96507.50;5041022;28;20181;-63
2021/08/16 10:53:06;;;;;;;2.85;2.03;;;;;;;24.26;49.08;96509.66;5039471;28;20549;-64
2021/08/16 10:55:36;;;;;;;4.40;2.53;;;;;;;23.84;50.07;96503.28;5035021;28;20185;-63
2021/08/16 10:58:05;;;;;;;3.85;2.40;;;;;;;24.08;50.12;96506.22;5040103;28;20173;-63
2021/08/16 11:00:31;;;;;;;3.20;2.38;;;;;;;23.88;49.98;96506.91;5039431;28;20178;-63
2021/08/16 11:02:56;;;;;;;3.90;2.65;;;;;;;23.48;51.02;96515.13;5034736;28;20182;-63
2021/08/16 11:05:39;;;;;;;6.35;2.40;;;;;;;23.83;50.16;96509.75;5041290;28;20272;-63
2021/08/16 11:08:06;;;;;;;3.35;2.47;;;;;;;24.63;48.99;96511.53;5036580;28;20171;-64
2021/08/16 11:10:49;;;;;;;2.92;2.08;;;;;;;24.58;48.85;96508.25;5048188;28;20612;-63
2021/08/16 11:13:18;;;;;;;3.20;2.60;;;;;;;25.04;47.84;96510.06;5032486;28;20175;-63
2021/08/16 11:15:45;;;;;;;3.90;2.50;;;;;;;25.35;46.78;96501.66;5030126;28;20187;-63
2021/08/16 11:18:13;;;;;;;3.58;2.30;;;;;;;25.32;46.28;96503.09;5037873;28;20186;-64
2021/08/16 11:20:38;;;;;;;2.78;2.28;;;;;;;25.55;46.03;96496.25;5037232;28;20198;-63
2021/08/16 11:23:04;;;;;;;3.90;2.33;;;;;;;25.40;46.21;96490.72;5037110;28;20281;-63
2021/08/16 11:25:29;;;;;;;3.15;2.20;;;;;;;24.71;47.00;96493.84;5073081;28;20194;-63
2021/08/16 11:28:07;;;;;;;2.55;2.35;;;;;;;24.34;48.05;96498.13;5046267;28;20271;-63